»·PEaware :: WAT169 KLAS-KSNA

WAT169 :: KLAS-KSNA

FLIGHT INFORMATION

Flight Status: Arrived
Operator: Unknown
More flights by this operator :: More flights under this callsign
Pilot: Marty P. (27464)
Aircraft: BOMBARDIER BD-100 CHALLENGER 300
(CL30)
More flights by this aircraft type
Origin: KLAS McCarran Intl
United States
Destination: KSNA John Wayne-Orange Co
United States
More flights between these airports :: More routes between these airports
Route: +BOACH8 WHIGG FEYLA DSNEE4
File this flight plan on PilotEdge
Remarks:
Altitude:
(Current/Filed)
28,000ft
Speed:
(Current/Filed)
470kts
Departed: 21-Mar-20 06:10 PM
Arrived: 21-Mar-20 07:03 PM
Distance/Time
Traveled:
196nm/0:53
Distance/Time
To Go:
Arrived

Flight Plot

Page will automatically refresh every two minutes.

Flight plan parsing failed; only flown route is shown


Map Options




Map Legend


Flown Route
Filed Route
Departure Airport
Arrival Airport
Navaid (VOR, NDB)
Fix

Horizontal Profiles

Position Reports

Time Latitude Longitude Heading Altitude Ground
Speed
21-Mar-20 17:45 36.081397 -115.147775 61 2187ft 0kts
21-Mar-20 17:46 36.081397 -115.147775 61 2187ft 0kts
21-Mar-20 17:47 36.081397 -115.147775 61 2187ft 0kts
21-Mar-20 17:48 36.081397 -115.147775 61 2187ft 0kts
21-Mar-20 17:49 36.081397 -115.147775 61 2187ft 0kts
21-Mar-20 17:50 36.081397 -115.147775 61 2187ft 0kts
21-Mar-20 17:51 36.081399 -115.147770 61 2188ft 0kts
21-Mar-20 17:52 36.081087 -115.148342 55 2188ft 2kts
21-Mar-20 17:53 36.081103 -115.148541 156 2188ft 0kts
21-Mar-20 17:54 36.081103 -115.148540 156 2188ft 0kts
21-Mar-20 17:55 36.081103 -115.148540 156 2187ft 0kts
21-Mar-20 17:56 36.081102 -115.148540 156 2187ft 0kts
21-Mar-20 17:57 36.080954 -115.148454 154 2187ft 0kts
21-Mar-20 17:58 36.080954 -115.148454 154 2187ft 0kts
21-Mar-20 17:59 36.080954 -115.148454 154 2187ft 0kts
21-Mar-20 18:00 36.080954 -115.148454 154 2187ft 0kts
21-Mar-20 18:01 36.079565 -115.147657 156 2187ft 15kts
21-Mar-20 18:02 36.078262 -115.143208 90 2188ft 15kts
21-Mar-20 18:03 36.078263 -115.136868 89 2188ft 17kts
21-Mar-20 18:04 36.078273 -115.131937 89 2187ft 17kts
21-Mar-20 18:05 36.078280 -115.125602 89 2187ft 18kts
21-Mar-20 18:06 36.077418 -115.121426 140 2187ft 0kts
21-Mar-20 18:07 36.076467 -115.121432 242 2187ft 13kts
21-Mar-20 18:08 36.076437 -115.122160 270 2187ft 0kts
21-Mar-20 18:09 36.076102 -115.156224 266 2703ft 204kts
21-Mar-20 18:10 36.076118 -115.226435 270 5220ft 232kts
21-Mar-20 18:11 36.022785 -115.277284 201 5888ft 286kts
21-Mar-20 18:12 35.947437 -115.303793 187 5876ft 271kts
21-Mar-20 18:13 35.873750 -115.313059 187 10856ft 274kts
21-Mar-20 18:14 35.783863 -115.306609 177 12911ft 346kts
21-Mar-20 18:15 35.694429 -115.297330 189 13873ft 298kts
21-Mar-20 18:16 35.633645 -115.355894 227 13896ft 275kts
21-Mar-20 18:17 35.578727 -115.428796 230 17332ft 294kts
21-Mar-20 18:18 35.522720 -115.503762 231 20678ft 300kts
21-Mar-20 18:19 35.466400 -115.579615 233 23584ft 304kts
21-Mar-20 18:20 35.409509 -115.656219 234 26127ft 307kts
21-Mar-20 18:21 35.351076 -115.734865 235 27902ft 326kts
21-Mar-20 18:22 35.283886 -115.825070 234 27904ft 374kts
21-Mar-20 18:23 35.214731 -115.919636 246 27857ft 359kts
21-Mar-20 18:24 35.205302 -116.036865 267 27889ft 344kts
21-Mar-20 18:25 35.202298 -116.154504 267 27885ft 341kts
21-Mar-20 18:26 35.125384 -116.213676 178 27899ft 430kts
21-Mar-20 18:28 35.020065 -116.123176 151 27897ft 468kts
21-Mar-20 18:29 34.916966 -116.112732 233 27889ft 344kts
21-Mar-20 18:30 34.897135 -116.217752 263 27896ft 327kts
21-Mar-20 18:31 34.880868 -116.328089 247 28088ft 333kts
21-Mar-20 18:32 34.816594 -116.416665 234 26788ft 357kts
21-Mar-20 18:33 34.747636 -116.505352 233 25577ft 351kts
21-Mar-20 18:34 34.679339 -116.585499 228 25479ft 332kts
21-Mar-20 18:35 34.606596 -116.658864 226 23837ft 349kts
21-Mar-20 18:36 34.533024 -116.731012 225 22508ft 313kts
21-Mar-20 18:37 34.472202 -116.795034 231 21101ft 274kts
21-Mar-20 18:38 34.417543 -116.859575 229 18806ft 275kts
21-Mar-20 18:39 34.362389 -116.923800 227 16496ft 273kts
21-Mar-20 18:40 34.307973 -116.986656 225 14191ft 269kts
21-Mar-20 18:41 34.252359 -117.042909 214 13758ft 263kts
21-Mar-20 18:42 34.189531 -117.088989 211 11722ft 262kts
21-Mar-20 18:43 34.127742 -117.125304 205 12164ft 215kts
21-Mar-20 18:44 34.065817 -117.158751 205 12147ft 278kts
21-Mar-20 18:45 33.995175 -117.199742 224 11666ft 282kts
21-Mar-20 18:46 33.944544 -117.268987 228 9210ft 266kts
21-Mar-20 18:47 33.899830 -117.331817 228 7950ft 213kts
21-Mar-20 18:47 33.867859 -117.376999 228 7967ft 217kts
21-Mar-20 18:49 33.820697 -117.443996 237 7918ft 230kts
21-Mar-20 18:50 33.799461 -117.517403 270 7493ft 223kts
21-Mar-20 18:50 33.801518 -117.573436 271 7450ft 187kts
21-Mar-20 18:51 33.804094 -117.636229 271 7453ft 186kts
21-Mar-20 18:53 33.809276 -117.707793 304 7445ft 194kts
21-Mar-20 18:53 33.853353 -117.738890 331 5237ft 238kts
21-Mar-20 18:54 33.912133 -117.776786 302 2935ft 214kts
21-Mar-20 18:55 33.891227 -117.779926 121 2995ft 196kts
21-Mar-20 18:56 33.853597 -117.766338 235 2976ft 173kts
21-Mar-20 18:57 33.829597 -117.816195 226 2986ft 169kts
21-Mar-20 18:58 33.784856 -117.818906 168 2553ft 165kts
21-Mar-20 18:59 33.739010 -117.827698 205 1698ft 185kts
21-Mar-20 19:00 33.699929 -117.853479 207 483ft 142kts
21-Mar-20 19:01 33.671550 -117.871432 207 63ft 57kts
21-Mar-20 19:02 33.669307 -117.871813 136 63ft 0kts
21-Mar-20 19:03 33.670079 -117.869933 38 63ft 9kts
21-Mar-20 19:04 33.672733 -117.867690 37 63ft 22kts
21-Mar-20 19:05 33.676599 -117.864898 28 63ft 9kts
21-Mar-20 19:06 33.677157 -117.863660 118 62ft 2kts
21-Mar-20 19:07 33.677147 -117.863639 117 62ft 0kts
21-Mar-20 19:08 33.677147 -117.863639 117 62ft 0kts
21-Mar-20 19:09 33.677147 -117.863639 117 62ft 0kts
21-Mar-20 19:10 33.677147 -117.863639 117 62ft 0kts
21-Mar-20 19:11 33.677147 -117.863639 117 62ft 0kts
21-Mar-20 19:12 33.677147 -117.863639 117 62ft 0kts
21-Mar-20 19:13 33.677147 -117.863639 117 62ft 0kts
21-Mar-20 19:14 33.677147 -117.863639 117 62ft 0kts
21-Mar-20 19:15 33.677147 -117.863639 117 62ft 0kts
21-Mar-20 19:16 33.677147 -117.863639 117 62ft 0kts

Navigation Log

Ident Type
Flight plan parsing failed, navigation log unavailable